sensor_id;sensor_type;location;lat;lon;timestamp;P1;durP1;ratioP1;P2;durP2;ratioP2
45970;SDS011;31681;48.982;8.394;2023-03-14T00:01:13;1.10;;;0.65;;
45970;SDS011;31681;48.982;8.394;2023-03-14T00:03:40;0.70;;;0.70;;
45970;SDS011;31681;48.982;8.394;2023-03-14T00:06:06;0.85;;;0.50;;
45970;SDS011;31681;48.982;8.394;2023-03-14T00:08:32;2.80;;;0.60;;
45970;SDS011;31681;48.982;8.394;2023-03-14T00:10:58;1.10;;;0.70;;
45970;SDS011;31681;48.982;8.394;2023-03-14T00:13:33;1.42;;;0.60;;
45970;SDS011;31681;48.982;8.394;2023-03-14T00:16:02;0.52;;;0.50;;
45970;SDS011;31681;48.982;8.394;2023-03-14T00:18:33;0.75;;;0.50;;
45970;SDS011;31681;48.982;8.394;2023-03-14T00:20:59;0.75;;;0.50;;
45970;SDS011;31681;48.982;8.394;2023-03-14T00:23:26;0.70;;;0.50;;
45970;SDS011;31681;48.982;8.394;2023-03-14T00:25:53;0.85;;;0.60;;
45970;SDS011;31681;48.982;8.394;2023-03-14T00:28:18;1.70;;;0.63;;
45970;SDS011;31681;48.982;8.394;2023-03-14T00:30:46;0.60;;;0.60;;
45970;SDS011;31681;48.982;8.394;2023-03-14T00:33:12;1.33;;;0.60;;
45970;SDS011;31681;48.982;8.394;2023-03-14T00:35:37;0.80;;;0.77;;
45970;SDS011;31681;48.982;8.394;2023-03-14T00:38:02;0.80;;;0.60;;
45970;SDS011;31681;48.982;8.394;2023-03-14T00:40:28;1.48;;;0.60;;
45970;SDS011;31681;48.982;8.394;2023-03-14T00:42:53;0.55;;;0.43;;
45970;SDS011;31681;48.982;8.394;2023-03-14T00:45:19;0.52;;;0.50;;
45970;SDS011;31681;48.982;8.394;2023-03-14T00:47:44;0.95;;;0.50;;
45970;SDS011;31681;48.982;8.394;2023-03-14T00:50:10;0.50;;;0.50;;
45970;SDS011;31681;48.982;8.394;2023-03-14T00:52:37;0.50;;;0.50;;
45970;SDS011;31681;48.982;8.394;2023-03-14T00:55:05;0.55;;;0.55;;
45970;SDS011;31681;48.982;8.394;2023-03-14T00:57:30;0.50;;;0.50;;
45970;SDS011;31681;48.982;8.394;2023-03-14T00:59:56;0.73;;;0.57;;
45970;SDS011;31681;48.982;8.394;2023-03-14T01:02:21;0.65;;;0.65;;
45970;SDS011;31681;48.982;8.394;2023-03-14T01:04:48;0.60;;;0.60;;
45970;SDS011;31681;48.982;8.394;2023-03-14T01:07:14;1.27;;;0.50;;
45970;SDS011;31681;48.982;8.394;2023-03-14T01:09:40;0.63;;;0.60;;
45970;SDS011;31681;48.982;8.394;2023-03-14T01:12:05;0.70;;;0.60;;
45970;SDS011;31681;48.982;8.394;2023-03-14T01:14:31;0.50;;;0.50;;
45970;SDS011;31681;48.982;8.394;2023-03-14T01:16:56;1.48;;;0.52;;
45970;SDS011;31681;48.982;8.394;2023-03-14T01:19:27;0.50;;;0.50;;
45970;SDS011;31681;48.982;8.394;2023-03-14T01:21:53;2.08;;;0.73;;
45970;SDS011;31681;48.982;8.394;2023-03-14T01:24:19;1.42;;;0.65;;
45970;SDS011;31681;48.982;8.394;2023-03-14T01:26:45;3.45;;;0.50;;
45970;SDS011;31681;48.982;8.394;2023-03-14T01:29:11;0.82;;;0.50;;
45970;SDS011;31681;48.982;8.394;2023-03-14T01:31:38;0.77;;;0.50;;
45970;SDS011;31681;48.982;8.394;2023-03-14T01:34:03;3.83;;;0.68;;
45970;SDS011;31681;48.982;8.394;2023-03-14T01:36:29;0.95;;;0.50;;
45970;SDS011;31681;48.982;8.394;2023-03-14T01:38:55;1.60;;;0.90;;
45970;SDS011;31681;48.982;8.394;2023-03-14T01:41:23;0.70;;;0.60;;
45970;SDS011;31681;48.982;8.394;2023-03-14T01:43:52;1.33;;;0.60;;
45970;SDS011;31681;48.982;8.394;2023-03-14T01:51:30;1.45;;;0.60;;
45970;SDS011;31681;48.982;8.394;2023-03-14T01:54:07;0.57;;;0.57;;
45970;SDS011;31681;48.982;8.394;2023-03-14T01:56:37;0.75;;;0.57;;
45970;SDS011;31681;48.982;8.394;2023-03-14T01:59:06;2.08;;;0.68;;
45970;SDS011;31681;48.982;8.394;2023-03-14T02:01:33;1.52;;;0.70;;
45970;SDS011;31681;48.982;8.394;2023-03-14T02:04:00;0.95;;;0.60;;
45970;SDS011;31681;48.982;8.394;2023-03-14T02:06:31;3.47;;;0.50;;
45970;SDS011;31681;48.982;8.394;2023-03-14T02:09:04;1.33;;;0.70;;
45970;SDS011;31681;48.982;8.394;2023-03-14T02:11:32;1.08;;;0.60;;
45970;SDS011;31681;48.982;8.394;2023-03-14T02:14:09;0.63;;;0.50;;
45970;SDS011;31681;48.982;8.394;2023-03-14T02:17:08;2.25;;;0.50;;
45970;SDS011;31681;48.982;8.394;2023-03-14T02:20:11;0.95;;;0.60;;
45970;SDS011;31681;48.982;8.394;2023-03-14T02:23:00;1.30;;;0.60;;
45970;SDS011;31681;48.982;8.394;2023-03-14T02:25:31;1.98;;;0.70;;
45970;SDS011;31681;48.982;8.394;2023-03-14T02:27:58;0.98;;;0.50;;
45970;SDS011;31681;48.982;8.394;2023-03-14T02:30:27;1.83;;;0.60;;
45970;SDS011;31681;48.982;8.394;2023-03-14T02:32:55;2.22;;;0.73;;
45970;SDS011;31681;48.982;8.394;2023-03-14T02:35:26;0.68;;;0.68;;
45970;SDS011;31681;48.982;8.394;2023-03-14T02:37:55;1.05;;;0.57;;
45970;SDS011;31681;48.982;8.394;2023-03-14T02:40:25;2.38;;;1.35;;
45970;SDS011;31681;48.982;8.394;2023-03-14T02:42:52;1.58;;;1.10;;
45970;SDS011;31681;48.982;8.394;2023-03-14T02:47:45;0.75;;;0.63;;
45970;SDS011;31681;48.982;8.394;2023-03-14T02:50:15;1.50;;;0.73;;
45970;SDS011;31681;48.982;8.394;2023-03-14T02:52:45;0.98;;;0.70;;
45970;SDS011;31681;48.982;8.394;2023-03-14T02:55:11;1.33;;;0.70;;
45970;SDS011;31681;48.982;8.394;2023-03-14T02:57:40;1.17;;;0.52;;
45970;SDS011;31681;48.982;8.394;2023-03-14T03:00:05;1.10;;;1.05;;
45970;SDS011;31681;48.982;8.394;2023-03-14T03:02:35;0.63;;;0.50;;
45970;SDS011;31681;48.982;8.394;2023-03-14T03:05:00;1.95;;;0.75;;
45970;SDS011;31681;48.982;8.394;2023-03-14T03:07:26;1.33;;;0.70;;
45970;SDS011;31681;48.982;8.394;2023-03-14T03:09:54;0.52;;;0.50;;
45970;SDS011;31681;48.982;8.394;2023-03-14T03:12:19;1.73;;;0.50;;
45970;SDS011;31681;48.982;8.394;2023-03-14T03:14:45;0.88;;;0.63;;
45970;SDS011;31681;48.982;8.394;2023-03-14T03:17:10;2.78;;;0.77;;
45970;SDS011;31681;48.982;8.394;2023-03-14T03:19:37;6.55;;;0.85;;
45970;SDS011;31681;48.982;8.394;2023-03-14T03:22:02;0.95;;;0.60;;
45970;SDS011;31681;48.982;8.394;2023-03-14T03:24:28;1.92;;;0.65;;
45970;SDS011;31681;48.982;8.394;2023-03-14T03:26:53;2.05;;;0.80;;
45970;SDS011;31681;48.982;8.394;2023-03-14T03:29:19;2.17;;;0.68;;
45970;SDS011;31681;48.982;8.394;2023-03-14T03:31:45;1.98;;;0.60;;
45970;SDS011;31681;48.982;8.394;2023-03-14T03:34:15;1.10;;;0.60;;
45970;SDS011;31681;48.982;8.394;2023-03-14T03:36:41;2.88;;;0.70;;
45970;SDS011;31681;48.982;8.394;2023-03-14T03:39:07;2.38;;;0.70;;
45970;SDS011;31681;48.982;8.394;2023-03-14T03:41:32;2.53;;;0.70;;
45970;SDS011;31681;48.982;8.394;2023-03-14T03:43:58;1.00;;;0.60;;
45970;SDS011;31681;48.982;8.394;2023-03-14T03:46:24;2.60;;;0.70;;
45970;SDS011;31681;48.982;8.394;2023-03-14T03:48:54;2.35;;;0.73;;
45970;SDS011;31681;48.982;8.394;2023-03-14T03:51:20;1.58;;;0.55;;
45970;SDS011;31681;48.982;8.394;2023-03-14T03:53:46;2.58;;;0.60;;
45970;SDS011;31681;48.982;8.394;2023-03-14T03:56:15;2.63;;;0.60;;
45970;SDS011;31681;48.982;8.394;2023-03-14T03:58:41;3.30;;;0.65;;
45970;SDS011;31681;48.982;8.394;2023-03-14T04:01:07;1.00;;;0.60;;
45970;SDS011;31681;48.982;8.394;2023-03-14T04:03:34;1.48;;;0.68;;
45970;SDS011;31681;48.982;8.394;2023-03-14T04:06:04;3.58;;;1.05;;
45970;SDS011;31681;48.982;8.394;2023-03-14T04:08:37;1.80;;;0.80;;
45970;SDS011;31681;48.982;8.394;2023-03-14T04:11:04;1.45;;;0.57;;
45970;SDS011;31681;48.982;8.394;2023-03-14T04:13:45;2.35;;;1.00;;
45970;SDS011;31681;48.982;8.394;2023-03-14T04:16:13;3.08;;;0.70;;
45970;SDS011;31681;48.982;8.394;2023-03-14T04:18:41;2.83;;;0.70;;
45970;SDS011;31681;48.982;8.394;2023-03-14T04:21:07;1.67;;;0.50;;
45970;SDS011;31681;48.982;8.394;2023-03-14T04:23:42;1.08;;;0.52;;
45970;SDS011;31681;48.982;8.394;2023-03-14T04:26:07;1.52;;;0.80;;
45970;SDS011;31681;48.982;8.394;2023-03-14T04:28:33;1.95;;;0.90;;
45970;SDS011;31681;48.982;8.394;2023-03-14T04:31:06;4.53;;;0.70;;
45970;SDS011;31681;48.982;8.394;2023-03-14T04:33:33;2.28;;;0.80;;
45970;SDS011;31681;48.982;8.394;2023-03-14T04:35:58;1.60;;;0.55;;
45970;SDS011;31681;48.982;8.394;2023-03-14T04:38:24;2.08;;;0.70;;
45970;SDS011;31681;48.982;8.394;2023-03-14T04:40:50;1.65;;;0.70;;
45970;SDS011;31681;48.982;8.394;2023-03-14T04:43:18;1.77;;;0.60;;
45970;SDS011;31681;48.982;8.394;2023-03-14T04:45:54;3.72;;;0.88;;
45970;SDS011;31681;48.982;8.394;2023-03-14T04:48:20;1.98;;;0.82;;
45970;SDS011;31681;48.982;8.394;2023-03-14T04:50:46;5.97;;;0.80;;
45970;SDS011;31681;48.982;8.394;2023-03-14T04:53:12;3.05;;;0.82;;
45970;SDS011;31681;48.982;8.394;2023-03-14T04:55:40;3.92;;;0.80;;
45970;SDS011;31681;48.982;8.394;2023-03-14T04:58:06;4.63;;;0.95;;
45970;SDS011;31681;48.982;8.394;2023-03-14T05:00:32;0.85;;;0.60;;
45970;SDS011;31681;48.982;8.394;2023-03-14T05:03:32;3.22;;;0.95;;
45970;SDS011;31681;48.982;8.394;2023-03-14T05:06:19;3.95;;;1.55;;
45970;SDS011;31681;48.982;8.394;2023-03-14T05:09:03;2.50;;;0.80;;
45970;SDS011;31681;48.982;8.394;2023-03-14T05:11:43;4.55;;;1.00;;
45970;SDS011;31681;48.982;8.394;2023-03-14T05:14:24;2.85;;;0.70;;
45970;SDS011;31681;48.982;8.394;2023-03-14T05:17:08;2.15;;;0.70;;
45970;SDS011;31681;48.982;8.394;2023-03-14T05:19:52;3.17;;;0.70;;
45970;SDS011;31681;48.982;8.394;2023-03-14T05:22:23;3.65;;;0.90;;
45970;SDS011;31681;48.982;8.394;2023-03-14T05:24:59;5.07;;;1.10;;
45970;SDS011;31681;48.982;8.394;2023-03-14T05:27:39;3.88;;;0.63;;
45970;SDS011;31681;48.982;8.394;2023-03-14T05:30:30;1.27;;;0.50;;
45970;SDS011;31681;48.982;8.394;2023-03-14T05:33:04;4.28;;;0.63;;
45970;SDS011;31681;48.982;8.394;2023-03-14T05:35:44;1.30;;;0.55;;
45970;SDS011;31681;48.982;8.394;2023-03-14T05:38:22;1.40;;;0.50;;
45970;SDS011;31681;48.982;8.394;2023-03-14T05:41:16;3.28;;;0.70;;
45970;SDS011;31681;48.982;8.394;2023-03-14T05:44:14;1.60;;;0.52;;
45970;SDS011;31681;48.982;8.394;2023-03-14T05:47:00;3.25;;;0.65;;
45970;SDS011;31681;48.982;8.394;2023-03-14T05:50:04;1.67;;;0.60;;
45970;SDS011;31681;48.982;8.394;2023-03-14T05:52:56;0.75;;;0.50;;
45970;SDS011;31681;48.982;8.394;2023-03-14T05:55:50;3.00;;;0.63;;
45970;SDS011;31681;48.982;8.394;2023-03-14T05:58:31;1.55;;;0.55;;
45970;SDS011;31681;48.982;8.394;2023-03-14T06:01:08;3.28;;;0.63;;
45970;SDS011;31681;48.982;8.394;2023-03-14T06:03:48;1.48;;;0.68;;
45970;SDS011;31681;48.982;8.394;2023-03-14T06:06:14;2.08;;;0.50;;
45970;SDS011;31681;48.982;8.394;2023-03-14T06:08:41;2.05;;;0.50;;
45970;SDS011;31681;48.982;8.394;2023-03-14T06:11:09;1.98;;;0.90;;
45970;SDS011;31681;48.982;8.394;2023-03-14T06:13:34;3.38;;;0.82;;
45970;SDS011;31681;48.982;8.394;2023-03-14T06:16:01;2.78;;;0.50;;
45970;SDS011;31681;48.982;8.394;2023-03-14T06:18:27;3.30;;;0.80;;
45970;SDS011;31681;48.982;8.394;2023-03-14T06:20:53;2.35;;;0.60;;
45970;SDS011;31681;48.982;8.394;2023-03-14T06:23:23;1.15;;;0.50;;
45970;SDS011;31681;48.982;8.394;2023-03-14T06:25:49;2.15;;;0.82;;
45970;SDS011;31681;48.982;8.394;2023-03-14T06:28:16;1.45;;;0.60;;
45970;SDS011;31681;48.982;8.394;2023-03-14T06:30:42;1.33;;;0.68;;
45970;SDS011;31681;48.982;8.394;2023-03-14T06:33:09;2.58;;;0.80;;
45970;SDS011;31681;48.982;8.394;2023-03-14T06:35:35;3.70;;;0.82;;
45970;SDS011;31681;48.982;8.394;2023-03-14T06:38:00;2.60;;;0.70;;
45970;SDS011;31681;48.982;8.394;2023-03-14T06:40:26;3.22;;;0.70;;
45970;SDS011;31681;48.982;8.394;2023-03-14T06:43:04;0.75;;;0.45;;
45970;SDS011;31681;48.982;8.394;2023-03-14T06:45:31;0.95;;;0.45;;
45970;SDS011;31681;48.982;8.394;2023-03-14T06:47:58;2.90;;;0.77;;
45970;SDS011;31681;48.982;8.394;2023-03-14T06:50:32;2.67;;;1.23;;
45970;SDS011;31681;48.982;8.394;2023-03-14T06:52:58;2.22;;;0.82;;
45970;SDS011;31681;48.982;8.394;2023-03-14T06:55:25;0.98;;;0.50;;
45970;SDS011;31681;48.982;8.394;2023-03-14T06:57:52;2.75;;;0.52;;
45970;SDS011;31681;48.982;8.394;2023-03-14T07:00:18;1.48;;;0.50;;
45970;SDS011;31681;48.982;8.394;2023-03-14T07:02:44;0.60;;;0.50;;
45970;SDS011;31681;48.982;8.394;2023-03-14T07:05:21;4.78;;;0.88;;
45970;SDS011;31681;48.982;8.394;2023-03-14T07:07:47;1.92;;;0.50;;
45970;SDS011;31681;48.982;8.394;2023-03-14T07:10:12;0.75;;;0.60;;
45970;SDS011;31681;48.982;8.394;2023-03-14T07:12:38;1.35;;;0.40;;
45970;SDS011;31681;48.982;8.394;2023-03-14T07:15:03;2.55;;;0.63;;
45970;SDS011;31681;48.982;8.394;2023-03-14T07:17:29;2.70;;;0.60;;
45970;SDS011;31681;48.982;8.394;2023-03-14T07:19:55;0.70;;;0.40;;
45970;SDS011;31681;48.982;8.394;2023-03-14T07:22:21;0.95;;;0.50;;
45970;SDS011;31681;48.982;8.394;2023-03-14T07:24:47;0.50;;;0.40;;
45970;SDS011;31681;48.982;8.394;2023-03-14T07:27:12;1.02;;;0.50;;
45970;SDS011;31681;48.982;8.394;2023-03-14T07:29:38;0.50;;;0.50;;
45970;SDS011;31681;48.982;8.394;2023-03-14T07:32:03;0.77;;;0.40;;
45970;SDS011;31681;48.982;8.394;2023-03-14T07:34:29;1.35;;;0.45;;
45970;SDS011;31681;48.982;8.394;2023-03-14T07:36:54;0.85;;;0.50;;
45970;SDS011;31681;48.982;8.394;2023-03-14T07:39:20;2.38;;;0.40;;
45970;SDS011;31681;48.982;8.394;2023-03-14T07:41:54;1.98;;;0.43;;
45970;SDS011;31681;48.982;8.394;2023-03-14T07:44:38;0.70;;;0.50;;
45970;SDS011;31681;48.982;8.394;2023-03-14T07:47:03;1.02;;;0.50;;
45970;SDS011;31681;48.982;8.394;2023-03-14T07:49:29;0.40;;;0.40;;
45970;SDS011;31681;48.982;8.394;2023-03-14T07:51:54;0.68;;;0.52;;
45970;SDS011;31681;48.982;8.394;2023-03-14T07:54:20;1.02;;;0.60;;
45970;SDS011;31681;48.982;8.394;2023-03-14T07:56:45;1.85;;;0.60;;
45970;SDS011;31681;48.982;8.394;2023-03-14T07:59:11;0.50;;;0.50;;
45970;SDS011;31681;48.982;8.394;2023-03-14T08:01:37;1.20;;;0.50;;
45970;SDS011;31681;48.982;8.394;2023-03-14T08:04:02;1.33;;;0.50;;
45970;SDS011;31681;48.982;8.394;2023-03-14T08:06:28;0.73;;;0.40;;
45970;SDS011;31681;48.982;8.394;2023-03-14T08:08:53;1.52;;;0.70;;
45970;SDS011;31681;48.982;8.394;2023-03-14T08:11:19;0.52;;;0.43;;
45970;SDS011;31681;48.982;8.394;2023-03-14T08:13:44;0.70;;;0.40;;
45970;SDS011;31681;48.982;8.394;2023-03-14T08:16:15;0.73;;;0.57;;
45970;SDS011;31681;48.982;8.394;2023-03-14T08:18:44;1.30;;;0.40;;
45970;SDS011;31681;48.982;8.394;2023-03-14T08:21:11;1.38;;;0.40;;
45970;SDS011;31681;48.982;8.394;2023-03-14T08:23:37;0.52;;;0.40;;
45970;SDS011;31681;48.982;8.394;2023-03-14T08:26:03;0.73;;;0.63;;
45970;SDS011;31681;48.982;8.394;2023-03-14T08:28:29;0.40;;;0.40;;
45970;SDS011;31681;48.982;8.394;2023-03-14T08:30:57;2.03;;;0.65;;
45970;SDS011;31681;48.982;8.394;2023-03-14T08:33:23;0.70;;;0.40;;
45970;SDS011;31681;48.982;8.394;2023-03-14T08:35:53;1.25;;;0.32;;
45970;SDS011;31681;48.982;8.394;2023-03-14T08:38:19;1.92;;;0.40;;
45970;SDS011;31681;48.982;8.394;2023-03-14T08:40:45;0.63;;;0.50;;
45970;SDS011;31681;48.982;8.394;2023-03-14T08:43:10;2.88;;;0.30;;
45970;SDS011;31681;48.982;8.394;2023-03-14T08:45:36;1.45;;;0.43;;
45970;SDS011;31681;48.982;8.394;2023-03-14T08:48:01;0.43;;;0.43;;
45970;SDS011;31681;48.982;8.394;2023-03-14T08:50:27;0.57;;;0.50;;
45970;SDS011;31681;48.982;8.394;2023-03-14T08:52:52;0.93;;;0.40;;
45970;SDS011;31681;48.982;8.394;2023-03-14T08:55:18;0.43;;;0.30;;
45970;SDS011;31681;48.982;8.394;2023-03-14T08:57:43;0.35;;;0.35;;
45970;SDS011;31681;48.982;8.394;2023-03-14T09:00:09;0.30;;;0.30;;
45970;SDS011;31681;48.982;8.394;2023-03-14T09:02:40;0.30;;;0.30;;
45970;SDS011;31681;48.982;8.394;2023-03-14T09:05:06;0.85;;;0.40;;
45970;SDS011;31681;48.982;8.394;2023-03-14T09:07:32;0.93;;;0.45;;
45970;SDS011;31681;48.982;8.394;2023-03-14T09:09:58;0.60;;;0.43;;
45970;SDS011;31681;48.982;8.394;2023-03-14T09:12:23;0.75;;;0.30;;
45970;SDS011;31681;48.982;8.394;2023-03-14T09:14:49;0.93;;;0.30;;
45970;SDS011;31681;48.982;8.394;2023-03-14T09:17:14;0.80;;;0.40;;
45970;SDS011;31681;48.982;8.394;2023-03-14T09:19:40;0.43;;;0.43;;
45970;SDS011;31681;48.982;8.394;2023-03-14T09:22:05;2.30;;;0.60;;
45970;SDS011;31681;48.982;8.394;2023-03-14T09:24:30;1.67;;;0.50;;
45970;SDS011;31681;48.982;8.394;2023-03-14T09:26:56;0.30;;;0.30;;
45970;SDS011;31681;48.982;8.394;2023-03-14T09:29:22;0.30;;;0.30;;
45970;SDS011;31681;48.982;8.394;2023-03-14T09:31:48;0.30;;;0.30;;
45970;SDS011;31681;48.982;8.394;2023-03-14T09:34:13;1.10;;;0.43;;
45970;SDS011;31681;48.982;8.394;2023-03-14T09:36:38;1.50;;;0.40;;
45970;SDS011;31681;48.982;8.394;2023-03-14T09:39:05;0.40;;;0.30;;
45970;SDS011;31681;48.982;8.394;2023-03-14T09:44:08;0.75;;;0.30;;
45970;SDS011;31681;48.982;8.394;2023-03-14T09:46:38;1.05;;;0.30;;
45970;SDS011;31681;48.982;8.394;2023-03-14T09:49:12;0.43;;;0.30;;
45970;SDS011;31681;48.982;8.394;2023-03-14T09:51:44;0.45;;;0.30;;
45970;SDS011;31681;48.982;8.394;2023-03-14T09:55:20;0.73;;;0.40;;
45970;SDS011;31681;48.982;8.394;2023-03-14T09:57:47;0.47;;;0.22;;
45970;SDS011;31681;48.982;8.394;2023-03-14T10:00:16;0.30;;;0.30;;
45970;SDS011;31681;48.982;8.394;2023-03-14T10:02:50;3.10;;;0.55;;
45970;SDS011;31681;48.982;8.394;2023-03-14T10:05:36;0.45;;;0.30;;
45970;SDS011;31681;48.982;8.394;2023-03-14T10:08:03;0.88;;;0.50;;
45970;SDS011;31681;48.982;8.394;2023-03-14T10:15:51;0.70;;;0.35;;
45970;SDS011;31681;48.982;8.394;2023-03-14T10:18:21;0.40;;;0.40;;
45970;SDS011;31681;48.982;8.394;2023-03-14T10:23:52;1.33;;;0.40;;
45970;SDS011;31681;48.982;8.394;2023-03-14T10:26:28;0.40;;;0.40;;
45970;SDS011;31681;48.982;8.394;2023-03-14T10:29:11;0.85;;;0.28;;
45970;SDS011;31681;48.982;8.394;2023-03-14T10:34:17;1.02;;;0.30;;
45970;SDS011;31681;48.982;8.394;2023-03-14T10:36:51;0.38;;;0.25;;
45970;SDS011;31681;48.982;8.394;2023-03-14T10:39:26;0.30;;;0.30;;
45970;SDS011;31681;48.982;8.394;2023-03-14T10:42:01;0.38;;;0.30;;
45970;SDS011;31681;48.982;8.394;2023-03-14T10:44:29;2.40;;;0.43;;
45970;SDS011;31681;48.982;8.394;2023-03-14T10:46:56;0.77;;;0.30;;
45970;SDS011;31681;48.982;8.394;2023-03-14T10:49:27;0.57;;;0.40;;
45970;SDS011;31681;48.982;8.394;2023-03-14T10:52:01;0.65;;;0.30;;
45970;SDS011;31681;48.982;8.394;2023-03-14T10:54:38;1.45;;;0.28;;
45970;SDS011;31681;48.982;8.394;2023-03-14T10:57:04;0.73;;;0.30;;
45970;SDS011;31681;48.982;8.394;2023-03-14T10:59:34;1.27;;;0.30;;
45970;SDS011;31681;48.982;8.394;2023-03-14T11:05:53;0.65;;;0.40;;
45970;SDS011;31681;48.982;8.394;2023-03-14T11:11:18;0.85;;;0.40;;
45970;SDS011;31681;48.982;8.394;2023-03-14T11:16:56;0.32;;;0.30;;
45970;SDS011;31681;48.982;8.394;2023-03-14T11:19:39;0.47;;;0.38;;
45970;SDS011;31681;48.982;8.394;2023-03-14T11:22:30;0.38;;;0.30;;
45970;SDS011;31681;48.982;8.394;2023-03-14T11:25:18;0.75;;;0.28;;
45970;SDS011;31681;48.982;8.394;2023-03-14T11:33:21;0.65;;;0.40;;
45970;SDS011;31681;48.982;8.394;2023-03-14T11:38:43;0.50;;;0.50;;
45970;SDS011;31681;48.982;8.394;2023-03-14T11:41:23;0.85;;;0.65;;
45970;SDS011;31681;48.982;8.394;2023-03-14T11:43:56;0.50;;;0.50;;
45970;SDS011;31681;48.982;8.394;2023-03-14T11:46:25;1.23;;;1.13;;
45970;SDS011;31681;48.982;8.394;2023-03-14T11:51:25;2.05;;;0.93;;
45970;SDS011;31681;48.982;8.394;2023-03-14T11:54:17;0.65;;;0.65;;
45970;SDS011;31681;48.982;8.394;2023-03-14T11:56:58;0.90;;;0.73;;
45970;SDS011;31681;48.982;8.394;2023-03-14T11:59:32;0.75;;;0.52;;
45970;SDS011;31681;48.982;8.394;2023-03-14T12:02:19;0.70;;;0.70;;
45970;SDS011;31681;48.982;8.394;2023-03-14T12:04:56;2.10;;;0.70;;
45970;SDS011;31681;48.982;8.394;2023-03-14T12:07:29;0.50;;;0.50;;
45970;SDS011;31681;48.982;8.394;2023-03-14T12:10:01;2.05;;;1.10;;
45970;SDS011;31681;48.982;8.394;2023-03-14T12:12:28;2.10;;;0.85;;
45970;SDS011;31681;48.982;8.394;2023-03-14T12:14:56;2.35;;;0.90;;
45970;SDS011;31681;48.982;8.394;2023-03-14T12:17:34;0.88;;;0.88;;
45970;SDS011;31681;48.982;8.394;2023-03-14T12:22:32;3.75;;;0.82;;
45970;SDS011;31681;48.982;8.394;2023-03-14T12:25:13;2.92;;;0.80;;
45970;SDS011;31681;48.982;8.394;2023-03-14T12:28:02;1.67;;;0.75;;
45970;SDS011;31681;48.982;8.394;2023-03-14T12:30:37;2.10;;;1.15;;
45970;SDS011;31681;48.982;8.394;2023-03-14T12:35:43;1.02;;;0.77;;
45970;SDS011;31681;48.982;8.394;2023-03-14T12:38:24;1.25;;;0.60;;
45970;SDS011;31681;48.982;8.394;2023-03-14T12:41:03;2.47;;;0.60;;
45970;SDS011;31681;48.982;8.394;2023-03-14T12:43:39;2.72;;;1.10;;
45970;SDS011;31681;48.982;8.394;2023-03-14T12:48:49;2.75;;;0.60;;
45970;SDS011;31681;48.982;8.394;2023-03-14T12:52:01;4.45;;;1.08;;
45970;SDS011;31681;48.982;8.394;2023-03-14T12:59:58;1.40;;;0.50;;
45970;SDS011;31681;48.982;8.394;2023-03-14T13:05:08;1.30;;;0.57;;
45970;SDS011;31681;48.982;8.394;2023-03-14T13:10:26;2.55;;;0.88;;
45970;SDS011;31681;48.982;8.394;2023-03-14T13:12:57;0.50;;;0.50;;
45970;SDS011;31681;48.982;8.394;2023-03-14T13:15:39;1.38;;;0.90;;
45970;SDS011;31681;48.982;8.394;2023-03-14T13:20:36;2.20;;;0.43;;
45970;SDS011;31681;48.982;8.394;2023-03-14T13:23:03;1.33;;;0.30;;
45970;SDS011;31681;48.982;8.394;2023-03-14T13:25:33;0.93;;;0.60;;
45970;SDS011;31681;48.982;8.394;2023-03-14T13:28:00;2.95;;;0.90;;
45970;SDS011;31681;48.982;8.394;2023-03-14T13:30:28;0.98;;;0.50;;
45970;SDS011;31681;48.982;8.394;2023-03-14T13:33:02;0.50;;;0.45;;
45970;SDS011;31681;48.982;8.394;2023-03-14T13:35:30;2.42;;;0.73;;
45970;SDS011;31681;48.982;8.394;2023-03-14T13:38:04;2.15;;;0.63;;
45970;SDS011;31681;48.982;8.394;2023-03-14T13:40:33;1.33;;;0.60;;
45970;SDS011;31681;48.982;8.394;2023-03-14T13:43:23;3.25;;;0.50;;
45970;SDS011;31681;48.982;8.394;2023-03-14T13:46:12;1.15;;;0.60;;
45970;SDS011;31681;48.982;8.394;2023-03-14T13:48:44;1.80;;;0.45;;
45970;SDS011;31681;48.982;8.394;2023-03-14T13:51:16;2.05;;;0.77;;
45970;SDS011;31681;48.982;8.394;2023-03-14T13:53:45;3.47;;;1.10;;
45970;SDS011;31681;48.982;8.394;2023-03-14T13:56:16;2.85;;;0.70;;
45970;SDS011;31681;48.982;8.394;2023-03-14T13:58:43;1.40;;;0.60;;
45970;SDS011;31681;48.982;8.394;2023-03-14T14:01:14;1.48;;;0.65;;
45970;SDS011;31681;48.982;8.394;2023-03-14T14:03:40;1.42;;;0.98;;
45970;SDS011;31681;48.982;8.394;2023-03-14T14:06:09;3.83;;;0.90;;
45970;SDS011;31681;48.982;8.394;2023-03-14T14:08:44;1.85;;;0.80;;
45970;SDS011;31681;48.982;8.394;2023-03-14T14:11:13;1.70;;;0.65;;
45970;SDS011;31681;48.982;8.394;2023-03-14T14:13:47;3.58;;;0.82;;
45970;SDS011;31681;48.982;8.394;2023-03-14T14:16:15;1.30;;;0.55;;
45970;SDS011;31681;48.982;8.394;2023-03-14T14:18:44;3.53;;;0.73;;
45970;SDS011;31681;48.982;8.394;2023-03-14T14:21:10;1.67;;;0.63;;
45970;SDS011;31681;48.982;8.394;2023-03-14T14:23:38;1.45;;;0.50;;
45970;SDS011;31681;48.982;8.394;2023-03-14T14:26:04;2.97;;;0.70;;
45970;SDS011;31681;48.982;8.394;2023-03-14T14:28:34;4.13;;;0.60;;
45970;SDS011;31681;48.982;8.394;2023-03-14T14:33:37;2.70;;;0.90;;
45970;SDS011;31681;48.982;8.394;2023-03-14T14:36:05;4.00;;;1.02;;
45970;SDS011;31681;48.982;8.394;2023-03-14T14:38:48;1.92;;;0.80;;
45970;SDS011;31681;48.982;8.394;2023-03-14T14:41:15;3.88;;;1.00;;
45970;SDS011;31681;48.982;8.394;2023-03-14T14:43:40;0.77;;;0.70;;
45970;SDS011;31681;48.982;8.394;2023-03-14T14:46:06;1.42;;;0.50;;
45970;SDS011;31681;48.982;8.394;2023-03-14T14:48:36;3.15;;;0.80;;
45970;SDS011;31681;48.982;8.394;2023-03-14T14:51:04;1.50;;;0.60;;
45970;SDS011;31681;48.982;8.394;2023-03-14T14:53:41;2.08;;;0.80;;
45970;SDS011;31681;48.982;8.394;2023-03-14T14:56:25;3.17;;;0.80;;
45970;SDS011;31681;48.982;8.394;2023-03-14T14:58:57;4.03;;;1.13;;
45970;SDS011;31681;48.982;8.394;2023-03-14T15:01:25;3.88;;;1.15;;
45970;SDS011;31681;48.982;8.394;2023-03-14T15:03:55;4.32;;;0.90;;
45970;SDS011;31681;48.982;8.394;2023-03-14T15:06:21;2.78;;;0.88;;
45970;SDS011;31681;48.982;8.394;2023-03-14T15:08:52;2.40;;;1.00;;
45970;SDS011;31681;48.982;8.394;2023-03-14T15:11:18;3.70;;;1.00;;
45970;SDS011;31681;48.982;8.394;2023-03-14T15:13:47;3.92;;;1.20;;
45970;SDS011;31681;48.982;8.394;2023-03-14T15:16:14;2.65;;;0.90;;
45970;SDS011;31681;48.982;8.394;2023-03-14T15:18:42;5.47;;;1.00;;
45970;SDS011;31681;48.982;8.394;2023-03-14T15:21:11;2.20;;;1.00;;
45970;SDS011;31681;48.982;8.394;2023-03-14T15:23:37;5.15;;;1.13;;
45970;SDS011;31681;48.982;8.394;2023-03-14T15:26:02;4.05;;;1.25;;
45970;SDS011;31681;48.982;8.394;2023-03-14T15:28:36;2.47;;;0.70;;
45970;SDS011;31681;48.982;8.394;2023-03-14T15:31:02;2.67;;;0.80;;
45970;SDS011;31681;48.982;8.394;2023-03-14T15:33:27;4.95;;;1.40;;
45970;SDS011;31681;48.982;8.394;2023-03-14T15:35:54;6.28;;;1.80;;
45970;SDS011;31681;48.982;8.394;2023-03-14T15:38:32;6.95;;;1.13;;
45970;SDS011;31681;48.982;8.394;2023-03-14T15:40:57;3.03;;;1.02;;
45970;SDS011;31681;48.982;8.394;2023-03-14T15:43:23;3.83;;;0.70;;
45970;SDS011;31681;48.982;8.394;2023-03-14T15:45:48;3.40;;;1.00;;
45970;SDS011;31681;48.982;8.394;2023-03-14T15:48:19;2.53;;;1.10;;
45970;SDS011;31681;48.982;8.394;2023-03-14T15:50:46;3.20;;;1.10;;
45970;SDS011;31681;48.982;8.394;2023-03-14T15:53:11;6.55;;;1.10;;
45970;SDS011;31681;48.982;8.394;2023-03-14T15:55:38;3.47;;;0.90;;
45970;SDS011;31681;48.982;8.394;2023-03-14T15:58:03;4.72;;;1.05;;
45970;SDS011;31681;48.982;8.394;2023-03-14T16:00:29;2.97;;;0.90;;
45970;SDS011;31681;48.982;8.394;2023-03-14T16:02:55;5.93;;;1.40;;
45970;SDS011;31681;48.982;8.394;2023-03-14T16:05:21;4.78;;;0.85;;
45970;SDS011;31681;48.982;8.394;2023-03-14T16:07:46;3.00;;;1.40;;
45970;SDS011;31681;48.982;8.394;2023-03-14T16:10:13;2.40;;;0.98;;
45970;SDS011;31681;48.982;8.394;2023-03-14T16:12:39;7.35;;;1.95;;